createdAt,value
2022-12-14T00:01:23.176Z,4.37
2022-12-14T00:03:53.155Z,4.19
2022-12-14T00:06:25.121Z,4.37
2022-12-14T00:08:52.918Z,4.50
2022-12-14T00:11:19.801Z,4.53
2022-12-14T00:13:48.839Z,4.41
2022-12-14T00:16:17.761Z,4.49
2022-12-14T00:18:45.005Z,4.40
2022-12-14T00:21:13.468Z,4.43
2022-12-14T00:23:42.160Z,4.52
2022-12-14T00:26:19.983Z,4.53
2022-12-14T00:28:48.210Z,4.60
2022-12-14T00:31:15.090Z,4.63
2022-12-14T00:33:42.038Z,4.40
2022-12-14T00:36:10.331Z,4.57
2022-12-14T00:38:37.054Z,4.60
2022-12-14T00:41:03.681Z,4.55
2022-12-14T00:43:30.258Z,4.50
2022-12-14T00:45:56.814Z,4.58
2022-12-14T00:48:25.202Z,4.60
2022-12-14T00:50:53.178Z,4.61
2022-12-14T00:53:20.101Z,4.55
2022-12-14T00:55:49.336Z,4.56
2022-12-14T00:58:18.533Z,4.56
2022-12-14T01:00:45.461Z,4.68
2022-12-14T01:03:12.583Z,4.58
2022-12-14T01:05:39.549Z,4.72
2022-12-14T01:08:06.874Z,4.79
2022-12-14T01:10:33.538Z,4.57
2022-12-14T01:13:00.122Z,4.57
2022-12-14T01:15:26.713Z,4.67
2022-12-14T01:17:53.505Z,4.66
2022-12-14T01:20:20.017Z,4.78
2022-12-14T01:22:46.505Z,4.73
2022-12-14T01:25:13.043Z,4.77
2022-12-14T01:27:39.551Z,4.88
2022-12-14T01:30:06.533Z,4.63
2022-12-14T01:32:34.639Z,4.80
2022-12-14T01:35:01.244Z,4.88
2022-12-14T01:37:27.781Z,4.91
2022-12-14T01:39:54.571Z,4.95
2022-12-14T01:42:21.099Z,4.70
2022-12-14T01:44:52.299Z,4.65
2022-12-14T01:47:29.339Z,4.60
2022-12-14T01:50:02.318Z,4.68
2022-12-14T01:53:19.675Z,4.75
2022-12-14T01:55:56.561Z,4.70
2022-12-14T01:58:25.243Z,4.90
2022-12-14T02:00:56.892Z,4.94
2022-12-14T02:03:40.271Z,4.82
2022-12-14T02:06:13.959Z,4.77
2022-12-14T02:08:42.818Z,4.72
2022-12-14T02:11:11.980Z,4.55
2022-12-14T02:13:40.684Z,4.48
2022-12-14T02:16:10.221Z,4.54
2022-12-14T02:18:37.065Z,4.66
2022-12-14T02:21:03.736Z,4.49
2022-12-14T02:23:52.019Z,4.74
2022-12-14T02:26:47.292Z,4.84
2022-12-14T02:29:32.302Z,4.70
2022-12-14T02:32:14.344Z,4.84
2022-12-14T02:35:09.838Z,4.91
2022-12-14T02:37:53.916Z,4.75
2022-12-14T02:40:33.183Z,4.76
2022-12-14T02:43:14.893Z,4.64
2022-12-14T02:45:44.422Z,4.73
2022-12-14T02:48:16.530Z,4.84
2022-12-14T02:51:11.883Z,4.73
2022-12-14T02:53:46.534Z,4.90
2022-12-14T02:56:18.053Z,4.85
2022-12-14T02:58:47.211Z,4.89
2022-12-14T03:01:17.109Z,4.94
2022-12-14T03:03:46.150Z,4.88
2022-12-14T03:06:16.998Z,4.77
2022-12-14T03:08:44.390Z,4.70
2022-12-14T03:11:14.802Z,4.59
2022-12-14T03:13:42.962Z,4.57
2022-12-14T03:16:14.353Z,4.29
2022-12-14T03:19:17.465Z,4.53
2022-12-14T03:21:48.102Z,4.61
2022-12-14T03:24:18.142Z,4.52
2022-12-14T03:26:51.616Z,4.42
2022-12-14T03:29:21.833Z,4.26
2022-12-14T03:32:04.170Z,4.30
2022-12-14T03:34:52.544Z,4.48
2022-12-14T03:37:27.792Z,4.67
2022-12-14T03:39:54.742Z,4.77
2022-12-14T03:42:27.816Z,4.73
2022-12-14T03:45:21.034Z,4.92
2022-12-14T03:48:19.937Z,5.07
2022-12-14T03:50:53.564Z,5.24
2022-12-14T03:53:29.656Z,5.28
2022-12-14T03:56:04.919Z,5.36
2022-12-14T03:58:42.850Z,5.36
2022-12-14T04:01:33.328Z,5.28
2022-12-14T04:04:04.057Z,5.33
2022-12-14T04:06:35.280Z,5.27
2022-12-14T04:09:23.873Z,5.29
2022-12-14T04:12:01.560Z,5.35
2022-12-14T04:14:55.412Z,5.27
2022-12-14T04:17:43.381Z,5.26
2022-12-14T04:20:14.961Z,5.29
2022-12-14T04:22:45.563Z,5.03
2022-12-14T04:25:25.873Z,4.89
2022-12-14T04:28:06.130Z,4.99
2022-12-14T04:30:35.444Z,4.86
2022-12-14T04:33:05.941Z,4.82
2022-12-14T04:35:36.893Z,4.95
2022-12-14T04:38:36.390Z,4.82
2022-12-14T04:41:09.212Z,4.99
2022-12-14T04:43:39.068Z,4.73
2022-12-14T04:46:08.764Z,4.98
2022-12-14T04:49:02.175Z,4.84
2022-12-14T04:51:36.620Z,4.93
2022-12-14T04:54:11.852Z,5.02
2022-12-14T04:56:46.505Z,4.98
2022-12-14T04:59:14.503Z,5.10
2022-12-14T05:01:49.799Z,5.08
2022-12-14T05:04:25.347Z,5.14
2022-12-14T05:07:11.498Z,5.06
2022-12-14T05:10:00.741Z,5.10
2022-12-14T05:12:34.509Z,5.23
2022-12-14T05:15:14.362Z,5.21
2022-12-14T05:17:41.740Z,5.06
2022-12-14T05:20:20.193Z,5.05
2022-12-14T05:22:49.568Z,5.08
2022-12-14T05:25:17.035Z,5.24
2022-12-14T05:27:43.638Z,5.30
2022-12-14T05:30:10.933Z,5.22
2022-12-14T05:32:37.529Z,5.28
2022-12-14T05:35:04.857Z,5.29
2022-12-14T05:37:32.044Z,4.92
2022-12-14T05:39:58.741Z,4.96
2022-12-14T05:42:25.290Z,5.19
2022-12-14T05:44:51.862Z,5.25
2022-12-14T05:47:18.637Z,5.31
2022-12-14T05:49:45.129Z,5.30
2022-12-14T05:52:11.727Z,5.01
2022-12-14T05:54:38.269Z,4.82
2022-12-14T05:57:04.813Z,4.86
2022-12-14T05:59:31.618Z,4.83
2022-12-14T06:01:58.206Z,4.98
2022-12-14T06:04:24.915Z,5.03
2022-12-14T06:06:51.785Z,5.19
2022-12-14T06:09:19.406Z,5.30
2022-12-14T06:11:46.566Z,5.33
2022-12-14T06:14:13.708Z,5.42
2022-12-14T06:16:41.551Z,5.01
2022-12-14T06:19:08.058Z,5.29
2022-12-14T06:21:36.603Z,5.40
2022-12-14T06:24:04.172Z,5.26
2022-12-14T06:26:32.991Z,5.37
2022-12-14T06:28:59.910Z,5.25
2022-12-14T06:31:29.618Z,5.05
2022-12-14T06:33:58.678Z,5.16
2022-12-14T06:36:27.778Z,5.14
2022-12-14T06:38:55.190Z,5.07
2022-12-14T06:41:23.024Z,4.83
2022-12-14T06:43:50.415Z,4.81
2022-12-14T06:46:20.044Z,4.95
2022-12-14T06:48:55.116Z,5.00
2022-12-14T06:51:23.096Z,5.14
2022-12-14T06:53:53.836Z,5.29
2022-12-14T06:56:21.664Z,4.92
2022-12-14T06:58:49.026Z,5.23
2022-12-14T07:01:20.631Z,5.38
2022-12-14T07:03:53.834Z,5.51
2022-12-14T07:06:24.258Z,5.64
2022-12-14T07:08:52.938Z,5.68
2022-12-14T07:11:21.568Z,5.75
2022-12-14T07:13:48.739Z,5.71
2022-12-14T07:16:19.174Z,5.60
2022-12-14T07:18:45.980Z,5.57
2022-12-14T07:21:15.929Z,5.62
2022-12-14T07:23:44.317Z,5.53
2022-12-14T07:26:16.052Z,5.53
2022-12-14T07:28:45.184Z,5.65
2022-12-14T07:31:17.744Z,5.54
2022-12-14T07:33:44.865Z,5.60
2022-12-14T07:36:14.376Z,5.70
2022-12-14T07:38:42.044Z,5.72
2022-12-14T07:41:17.650Z,5.79
2022-12-14T07:43:50.063Z,5.84
2022-12-14T07:46:18.989Z,5.49
2022-12-14T07:48:47.157Z,5.33
2022-12-14T07:51:16.426Z,5.47
2022-12-14T07:53:43.366Z,5.16
2022-12-14T07:56:15.262Z,5.03
2022-12-14T07:58:42.197Z,5.17
2022-12-14T08:01:15.619Z,5.17
2022-12-14T08:03:45.671Z,5.30
2022-12-14T08:06:13.141Z,5.28
2022-12-14T08:08:40.072Z,5.52
2022-12-14T08:11:07.875Z,5.71
2022-12-14T08:13:34.675Z,5.97
2022-12-14T08:16:11.954Z,5.81
2022-12-14T08:18:38.759Z,6.06
2022-12-14T08:21:06.749Z,6.09
2022-12-14T08:23:34.380Z,6.25
2022-12-14T08:26:01.831Z,6.16
2022-12-14T08:28:30.473Z,6.22
2022-12-14T08:30:57.812Z,6.30
2022-12-14T08:33:24.345Z,6.01
2022-12-14T08:35:51.199Z,5.90
2022-12-14T08:38:17.755Z,5.96
2022-12-14T08:40:44.386Z,6.06
2022-12-14T08:43:11.015Z,6.13
2022-12-14T08:45:37.849Z,6.35
2022-12-14T08:48:04.503Z,6.62
2022-12-14T08:50:31.537Z,6.38
2022-12-14T08:52:58.098Z,6.40
2022-12-14T08:55:29.160Z,6.74
2022-12-14T08:57:56.942Z,7.17
2022-12-14T09:00:23.601Z,7.23
2022-12-14T09:02:51.276Z,7.18
2022-12-14T09:05:18.250Z,7.04
2022-12-14T09:07:44.861Z,7.01
2022-12-14T09:10:11.685Z,7.39
2022-12-14T09:12:38.596Z,7.65
2022-12-14T09:15:05.789Z,7.82
2022-12-14T09:17:32.865Z,7.67
2022-12-14T09:19:59.469Z,7.96
2022-12-14T09:22:26.151Z,7.91
2022-12-14T09:24:52.754Z,8.01
2022-12-14T09:27:19.225Z,7.95
2022-12-14T09:29:45.685Z,7.69
2022-12-14T09:32:12.681Z,7.69
2022-12-14T09:34:39.257Z,7.86
2022-12-14T09:37:06.161Z,7.69
2022-12-14T09:39:32.874Z,7.34
2022-12-14T09:42:09.390Z,7.45
2022-12-14T09:45:20.507Z,7.70
2022-12-14T09:48:23.094Z,7.64
2022-12-14T09:50:52.457Z,7.75
2022-12-14T09:53:20.474Z,7.88
2022-12-14T09:55:49.968Z,7.94
2022-12-14T09:58:20.909Z,7.74
2022-12-14T10:01:05.884Z,7.61
2022-12-14T10:03:58.075Z,7.26
2022-12-14T10:06:33.321Z,7.38
2022-12-14T10:09:20.828Z,7.43
2022-12-14T10:12:02.566Z,7.11
2022-12-14T10:14:55.246Z,6.96
2022-12-14T10:17:27.835Z,7.22
2022-12-14T10:19:56.347Z,7.47
2022-12-14T10:22:29.564Z,7.52
2022-12-14T10:25:17.579Z,7.86
2022-12-14T10:28:13.439Z,7.63
2022-12-14T10:30:44.061Z,7.61
2022-12-14T10:33:27.023Z,7.32
2022-12-14T10:36:12.105Z,7.45
2022-12-14T10:38:58.400Z,7.60
2022-12-14T10:41:53.023Z,8.07
2022-12-14T10:44:50.143Z,8.18
2022-12-14T10:47:27.521Z,7.42
2022-12-14T10:50:15.161Z,7.65
2022-12-14T10:52:42.575Z,8.02
2022-12-14T10:55:33.378Z,8.25
2022-12-14T10:58:00.357Z,8.57
2022-12-14T11:00:27.374Z,8.87
2022-12-14T11:02:56.194Z,8.91
2022-12-14T11:05:31.068Z,9.08
2022-12-14T11:08:01.024Z,9.07
2022-12-14T11:10:31.891Z,8.93
2022-12-14T11:13:13.629Z,8.96
2022-12-14T11:15:47.358Z,9.28
2022-12-14T11:18:16.963Z,9.18
2022-12-14T11:20:51.294Z,8.36
2022-12-14T11:23:38.780Z,8.48
2022-12-14T11:26:18.629Z,8.89
2022-12-14T11:28:56.421Z,9.05
2022-12-14T11:31:32.659Z,8.77
2022-12-14T11:34:00.141Z,8.68
2022-12-14T11:36:38.033Z,8.70
2022-12-14T11:39:13.661Z,8.88
2022-12-14T11:41:44.952Z,8.28
2022-12-14T11:44:26.404Z,8.50
2022-12-14T11:46:57.729Z,8.43
2022-12-14T11:49:39.709Z,8.53
2022-12-14T11:52:13.680Z,8.47
2022-12-14T11:54:42.734Z,8.76
2022-12-14T11:57:31.675Z,8.93
2022-12-14T12:00:05.044Z,8.92
2022-12-14T12:02:48.003Z,8.89
2022-12-14T12:05:17.522Z,9.09
2022-12-14T12:07:51.201Z,9.12
2022-12-14T12:10:44.326Z,9.15
2022-12-14T12:13:35.113Z,9.30
2022-12-14T12:16:05.047Z,9.18
2022-12-14T12:19:11.271Z,9.33
2022-12-14T12:21:41.747Z,9.38
2022-12-14T12:24:31.243Z,9.11
2022-12-14T12:27:07.086Z,9.31
2022-12-14T12:29:38.115Z,9.42
2022-12-14T12:32:33.781Z,9.45
2022-12-14T12:35:12.497Z,9.64
2022-12-14T12:37:46.246Z,9.84
2022-12-14T12:40:32.815Z,9.91
2022-12-14T12:43:06.574Z,9.94
2022-12-14T12:45:41.309Z,9.57
2022-12-14T12:48:18.719Z,9.50
2022-12-14T12:50:50.265Z,9.60
2022-12-14T12:53:26.785Z,9.88
2022-12-14T12:56:06.070Z,9.53
2022-12-14T12:58:34.397Z,9.49
2022-12-14T13:01:05.597Z,9.62
2022-12-14T13:03:42.559Z,9.43
2022-12-14T13:06:17.550Z,9.51
2022-12-14T13:08:49.673Z,9.55
2022-12-14T13:11:27.331Z,9.60
2022-12-14T13:13:58.642Z,9.59
2022-12-14T13:16:31.570Z,9.21
2022-12-14T13:21:52.156Z,9.28
2022-12-14T13:24:20.643Z,9.43
2022-12-14T13:27:05.695Z,9.10
2022-12-14T13:29:50.837Z,9.31
2022-12-14T13:32:37.134Z,9.44
2022-12-14T13:35:04.241Z,9.50
2022-12-14T13:38:04.378Z,9.30
2022-12-14T13:40:54.261Z,9.12
2022-12-14T13:43:20.702Z,8.60
2022-12-14T13:45:50.980Z,8.70
2022-12-14T13:48:24.532Z,8.98
2022-12-14T13:51:02.170Z,9.00
2022-12-14T13:53:50.450Z,9.31
2022-12-14T13:56:33.218Z,9.29
2022-12-14T13:59:07.021Z,9.29
2022-12-14T14:01:48.791Z,9.44
2022-12-14T14:04:20.430Z,9.44
2022-12-14T14:06:53.025Z,9.30
2022-12-14T14:09:28.962Z,9.47
2022-12-14T14:12:17.658Z,9.35
2022-12-14T14:15:01.621Z,9.56
2022-12-14T14:17:36.958Z,9.58
2022-12-14T14:20:34.912Z,8.93
2022-12-14T14:23:13.646Z,8.42
2022-12-14T14:25:43.187Z,8.42
2022-12-14T14:28:16.316Z,8.52
2022-12-14T14:30:54.335Z,8.40
2022-12-14T14:33:48.920Z,8.74
2022-12-14T14:36:26.126Z,8.71
2022-12-14T14:38:54.634Z,8.86
2022-12-14T14:41:40.155Z,9.10
2022-12-14T14:44:23.377Z,9.10
2022-12-14T14:46:50.586Z,9.24
2022-12-14T14:49:49.836Z,9.19
2022-12-14T14:52:38.163Z,9.07
2022-12-14T14:59:19.349Z,9.08
2022-12-14T15:01:53.864Z,9.27
2022-12-14T15:04:27.933Z,9.07
2022-12-14T15:06:57.873Z,8.91
2022-12-14T15:09:38.760Z,8.42
2022-12-14T15:12:31.270Z,8.41
2022-12-14T15:15:03.657Z,8.49
2022-12-14T15:17:33.002Z,8.48
2022-12-14T15:20:01.683Z,8.53
2022-12-14T15:22:38.168Z,8.51
2022-12-14T15:25:24.478Z,8.82
2022-12-14T15:27:52.239Z,8.65
2022-12-14T15:30:23.033Z,8.87
2022-12-14T15:33:02.884Z,8.95
2022-12-14T15:35:34.977Z,9.00
2022-12-14T15:38:39.172Z,8.93
2022-12-14T15:41:13.886Z,9.05
2022-12-14T15:43:56.483Z,8.97
2022-12-14T15:46:39.312Z,8.81
2022-12-14T15:49:07.706Z,8.92
2022-12-14T15:52:21.861Z,8.70
2022-12-14T15:54:51.264Z,8.59
2022-12-14T15:57:19.272Z,8.36
2022-12-14T15:59:47.447Z,8.32
2022-12-14T16:02:26.608Z,8.38
2022-12-14T16:04:56.328Z,8.24
2022-12-14T16:07:30.349Z,8.40
2022-12-14T16:10:01.914Z,8.18
2022-12-14T16:12:45.129Z,8.62
2022-12-14T16:15:24.334Z,8.62
2022-12-14T16:17:57.533Z,8.51
2022-12-14T16:20:30.109Z,8.66
2022-12-14T16:23:15.044Z,8.59
2022-12-14T16:25:58.090Z,8.85
2022-12-14T16:28:36.817Z,9.02
2022-12-14T16:31:07.615Z,8.95
2022-12-14T16:33:35.948Z,9.13
2022-12-14T16:36:05.528Z,9.14
2022-12-14T16:38:39.405Z,9.00
2022-12-14T16:41:06.322Z,8.97
2022-12-14T16:43:38.027Z,9.00
2022-12-14T16:46:04.643Z,8.91
2022-12-14T16:48:33.332Z,8.90
2022-12-14T16:51:18.696Z,8.81
2022-12-14T16:53:53.620Z,8.90
2022-12-14T16:56:45.381Z,8.92
2022-12-14T16:59:22.665Z,8.69
2022-12-14T17:01:52.674Z,8.46
2022-12-14T17:04:22.163Z,7.98
2022-12-14T17:06:57.066Z,8.02
2022-12-14T17:09:28.359Z,8.01
2022-12-14T17:11:59.398Z,8.09
2022-12-14T17:14:27.641Z,8.22
2022-12-14T17:17:00.079Z,8.16
2022-12-14T17:19:36.562Z,8.12
2022-12-14T17:22:24.647Z,8.15
2022-12-14T17:24:51.388Z,8.25
2022-12-14T17:27:21.655Z,8.41
2022-12-14T17:29:48.811Z,8.40
2022-12-14T17:32:16.930Z,8.73
2022-12-14T17:34:50.998Z,8.62
2022-12-14T17:37:19.901Z,8.75
2022-12-14T17:39:46.633Z,8.70
2022-12-14T17:42:15.153Z,8.44
2022-12-14T17:44:42.895Z,8.60
2022-12-14T17:47:15.567Z,8.77
2022-12-14T17:49:42.148Z,8.95
2022-12-14T17:52:18.364Z,8.94
2022-12-14T17:54:45.116Z,8.95
2022-12-14T17:57:19.916Z,9.14
2022-12-14T17:59:47.708Z,9.18
2022-12-14T18:02:30.550Z,9.22
2022-12-14T18:04:57.359Z,9.35
2022-12-14T18:07:23.910Z,9.38
2022-12-14T18:09:50.779Z,9.41
2022-12-14T18:12:25.239Z,9.20
2022-12-14T18:14:52.279Z,9.09
2022-12-14T18:17:19.595Z,9.09
2022-12-14T18:19:47.952Z,9.20
2022-12-14T18:22:18.407Z,9.13
2022-12-14T18:24:47.473Z,9.21
2022-12-14T18:27:23.194Z,8.92
2022-12-14T18:30:16.312Z,8.93
2022-12-14T18:32:45.666Z,8.83
2022-12-14T18:35:24.326Z,8.96
2022-12-14T18:37:51.367Z,8.80
2022-12-14T18:40:20.965Z,8.78
2022-12-14T18:42:47.465Z,8.67
2022-12-14T18:45:22.305Z,8.67
2022-12-14T18:47:49.186Z,8.43
2022-12-14T18:50:16.342Z,8.46
2022-12-14T18:52:43.602Z,8.52
2022-12-14T18:55:22.645Z,8.57
2022-12-14T18:57:51.173Z,8.55
2022-12-14T19:00:20.320Z,8.70
2022-12-14T19:02:49.575Z,8.84
2022-12-14T19:05:21.504Z,9.01
2022-12-14T19:07:51.305Z,8.73
2022-12-14T19:10:22.718Z,8.83
2022-12-14T19:12:52.579Z,8.93
2022-12-14T19:15:24.436Z,8.80
2022-12-14T19:17:51.544Z,9.02
2022-12-14T19:20:19.022Z,9.12
2022-12-14T19:22:45.983Z,9.29
2022-12-14T19:25:13.011Z,9.36
2022-12-14T19:28:15.444Z,9.53
2022-12-14T19:30:32.523Z,9.48
2022-12-14T19:33:19.377Z,9.37
2022-12-14T19:35:46.281Z,9.49
2022-12-14T19:38:13.953Z,9.37
2022-12-14T19:40:40.494Z,9.18
2022-12-14T19:43:06.987Z,9.10
2022-12-14T19:45:33.487Z,9.27
2022-12-14T19:48:00.374Z,9.28
2022-12-14T19:50:26.982Z,9.42
2022-12-14T19:52:53.507Z,9.60
2022-12-14T19:58:00.430Z,9.70
2022-12-14T20:00:26.978Z,9.83
2022-12-14T20:02:53.707Z,9.77
2022-12-14T20:05:20.550Z,9.74
2022-12-14T20:07:47.170Z,9.79
2022-12-14T20:10:17.210Z,9.77
2022-12-14T20:12:48.612Z,9.68
2022-12-14T20:15:15.193Z,9.37
2022-12-14T20:17:44.801Z,9.09
2022-12-14T20:20:14.211Z,9.21
2022-12-14T20:22:40.758Z,9.44
2022-12-14T20:25:07.593Z,9.58
2022-12-14T20:27:40.298Z,9.56
2022-12-14T20:30:08.320Z,9.56
2022-12-14T20:32:34.823Z,9.59
2022-12-14T20:35:10.653Z,9.72
2022-12-14T20:37:37.291Z,9.54
2022-12-14T20:40:04.519Z,9.44
2022-12-14T20:42:31.024Z,9.56
2022-12-14T20:44:59.494Z,9.55
2022-12-14T20:47:29.155Z,9.48
2022-12-14T20:49:55.710Z,9.54
2022-12-14T20:52:22.248Z,9.43
2022-12-14T20:54:49.120Z,9.55
2022-12-14T20:57:15.766Z,9.54
2022-12-14T20:59:42.325Z,9.51
2022-12-14T21:02:26.892Z,9.43
2022-12-14T21:04:53.536Z,9.49
2022-12-14T21:07:24.329Z,9.58
2022-12-14T21:09:52.756Z,9.57
2022-12-14T21:12:22.434Z,9.62
2022-12-14T21:14:56.042Z,9.68
2022-12-14T21:17:24.829Z,9.46
2022-12-14T21:19:51.725Z,9.61
2022-12-14T21:22:23.742Z,9.44
2022-12-14T21:25:07.147Z,9.43
2022-12-14T21:27:36.111Z,9.38
2022-12-14T21:30:02.765Z,9.10
2022-12-14T21:32:29.786Z,9.23
2022-12-14T21:34:56.570Z,9.28
2022-12-14T21:37:23.396Z,9.29
2022-12-14T21:39:54.464Z,9.23
2022-12-14T21:42:25.298Z,9.19
2022-12-14T21:44:53.396Z,9.18
2022-12-14T21:47:25.064Z,9.13
2022-12-14T21:49:51.594Z,9.02
2022-12-14T21:52:20.675Z,9.14
2022-12-14T21:54:47.229Z,9.24
2022-12-14T21:57:18.771Z,9.21
2022-12-14T21:59:45.334Z,9.24
2022-12-14T22:02:21.047Z,9.31
2022-12-14T22:04:48.132Z,9.30
2022-12-14T22:07:19.563Z,9.38
2022-12-14T22:09:49.614Z,9.27
2022-12-14T22:12:17.951Z,8.82
2022-12-14T22:14:44.568Z,8.61
2022-12-14T22:17:11.647Z,8.94
2022-12-14T22:19:38.357Z,8.94
2022-12-14T22:22:05.353Z,8.85
2022-12-14T22:24:32.154Z,8.98
2022-12-14T22:26:58.727Z,8.96
2022-12-14T22:29:25.441Z,9.12
2022-12-14T22:31:52.034Z,9.26
2022-12-14T22:34:23.041Z,9.04
2022-12-14T22:36:50.998Z,8.99
2022-12-14T22:39:18.645Z,8.97
2022-12-14T22:41:45.639Z,8.88
2022-12-14T22:44:12.646Z,8.90
2022-12-14T22:46:40.345Z,8.83
2022-12-14T22:49:07.108Z,8.58
2022-12-14T22:51:33.613Z,8.57
2022-12-14T22:54:00.459Z,8.53
2022-12-14T22:56:43.558Z,8.56
2022-12-14T22:59:15.063Z,8.73
2022-12-14T23:01:42.589Z,8.33
2022-12-14T23:04:11.119Z,8.35
2022-12-14T23:06:37.793Z,8.38
2022-12-14T23:09:04.487Z,8.47
2022-12-14T23:11:31.417Z,8.58
2022-12-14T23:13:57.910Z,8.76
2022-12-14T23:16:24.466Z,8.69
2022-12-14T23:18:51.001Z,8.98
2022-12-14T23:21:17.563Z,8.96
2022-12-14T23:23:45.189Z,9.22
2022-12-14T23:26:11.679Z,9.30
2022-12-14T23:28:38.427Z,9.36
2022-12-14T23:31:05.458Z,9.27
2022-12-14T23:33:35.353Z,9.10
2022-12-14T23:36:01.836Z,9.14
2022-12-14T23:38:28.350Z,9.26
2022-12-14T23:41:01.546Z,9.39
2022-12-14T23:43:28.474Z,9.56
2022-12-14T23:45:55.269Z,9.26
2022-12-14T23:48:22.074Z,9.36
2022-12-14T23:50:48.629Z,9.16
2022-12-14T23:53:15.205Z,9.32
2022-12-14T23:55:41.803Z,9.42
2022-12-14T23:58:08.274Z,9.29
